Time;durP1;ratioP1;P1;durP2;ratioP2;P2;SDS_P1;SDS_P2;PMS_P1;PMS_P2;Temp;Humidity;BMP_temperature;BMP_pressure;BME280_temperature;BME280_humidity;BME280_pressure;Samples;Min_cycle;Max_cycle;Signal;HPM_P1;HPM_P2
2022/09/13 12:31:28;;;;;;;39.53;21.77;;;;;;;12.85;100.00;99817.47;1749492;81;21424;-86
2022/09/13 12:34:19;;;;;;;46.05;25.25;;;;;;;12.83;100.00;99818.36;1754907;80;20985;-86
2022/09/13 12:37:42;;;;;;;54.45;39.40;;;;;;;12.81;100.00;99817.86;1738594;80;21563;-87
2022/09/13 12:40:48;;;;;;;36.55;20.65;;;;;;;12.77;100.00;99814.10;1754086;80;21047;-88
2022/09/13 12:43:52;;;;;;;29.32;17.70;;;;;;;12.74;100.00;99818.84;1753373;80;21056;-87
2022/09/13 12:46:57;;;;;;;33.92;20.00;;;;;;;12.70;100.00;99820.56;1730564;80;21000;-88
2022/09/13 12:50:01;;;;;;;28.62;18.60;;;;;;;12.62;100.00;99826.79;1747924;81;21034;-88
2022/09/13 12:53:35;;;;;;;38.33;19.70;;;;;;;12.58;100.00;99827.14;1752469;80;20989;-87
2022/09/13 12:56:43;;;;;;;42.00;26.52;;;;;;;12.56;100.00;99836.23;1643843;87;21072;-88
2022/09/13 13:00:12;;;;;;;39.50;25.82;;;;;;;12.52;100.00;99830.56;1719642;83;21012;-87
2022/09/13 13:03:15;;;;;;;39.90;25.95;;;;;;;12.50;100.00;99831.98;1765106;80;21013;-87
2022/09/13 13:06:31;;;;;;;39.18;23.62;;;;;;;12.45;100.00;99836.45;1756206;81;21017;-88
2022/09/13 13:09:28;;;;;;;32.28;18.67;;;;;;;12.47;100.00;99846.55;1734779;80;20993;-85
2022/09/13 13:12:32;;;;;;;33.20;21.33;;;;;;;12.51;100.00;99851.41;1731849;80;21069;-88
2022/09/13 13:15:26;;;;;;;36.30;18.57;;;;;;;12.51;100.00;99852.78;1746070;81;21431;-88
2022/09/13 13:18:23;;;;;;;29.42;15.13;;;;;;;12.55;100.00;99848.32;1741282;80;21039;-87
2022/09/13 13:21:34;;;;;;;27.77;13.45;;;;;;;12.58;100.00;99853.98;1754494;80;21053;-88
2022/09/13 13:24:24;;;;;;;22.32;12.45;;;;;;;12.58;100.00;99855.92;1775914;80;20988;-88
2022/09/13 13:27:36;;;;;;;23.90;13.53;;;;;;;12.57;100.00;99854.31;1753151;80;20977;-88
2022/09/13 13:30:48;;;;;;;39.30;22.58;;;;;;;12.55;100.00;99853.80;1745690;81;21041;-88
2022/09/13 13:33:46;;;;;;;30.75;16.02;;;;;;;12.55;100.00;99860.09;1735297;81;21379;-87
2022/09/13 13:36:45;;;;;;;22.13;10.48;;;;;;;12.55;100.00;99853.80;1738022;81;21348;-87
2022/09/13 13:39:35;;;;;;;23.85;10.95;;;;;;;12.51;100.00;99855.52;1743109;80;21010;-87
2022/09/13 13:42:27;;;;;;;28.12;13.38;;;;;;;12.45;100.00;99861.11;1734391;82;21137;-87
2022/09/13 13:45:19;;;;;;;28.23;13.43;;;;;;;12.42;100.00;99858.99;1738834;82;21413;-89
2022/09/13 13:48:14;;;;;;;18.62;10.93;;;;;;;12.44;100.00;99864.17;1721203;82;27449;-88
2022/09/13 13:51:15;;;;;;;17.20;9.85;;;;;;;12.45;100.00;99865.22;1740031;82;21010;-88
2022/09/13 13:54:04;;;;;;;22.52;14.10;;;;;;;12.48;100.00;99865.17;1738425;81;21002;-87
2022/09/13 13:56:49;;;;;;;24.85;14.15;;;;;;;12.48;100.00;99870.08;1740322;82;21436;-89
2022/09/13 13:59:35;;;;;;;17.67;10.23;;;;;;;12.52;100.00;99865.38;1740816;81;21524;-88
2022/09/13 14:02:33;;;;;;;13.20;7.72;;;;;;;12.51;100.00;99874.70;1738970;82;20994;-87
2022/09/13 14:05:29;;;;;;;14.53;8.65;;;;;;;12.48;100.00;99871.45;1711318;83;21009;-89
2022/09/13 14:08:33;;;;;;;16.02;8.78;;;;;;;12.46;100.00;99875.08;1738138;81;20978;-90
2022/09/13 14:11:52;;;;;;;21.50;11.75;;;;;;;12.41;100.00;99866.97;1705886;82;21015;-88
2022/09/13 14:15:15;;;;;;;18.15;10.82;;;;;;;12.39;100.00;99869.77;1717538;83;21058;-87
2022/09/13 14:18:40;;;;;;;22.50;11.50;;;;;;;12.39;100.00;99869.77;1678274;84;21081;-88
2022/09/13 14:21:28;;;;;;;23.18;13.60;;;;;;;12.42;100.00;99868.58;1722075;82;21018;-88
2022/09/13 14:24:21;;;;;;;19.70;9.65;;;;;;;12.45;100.00;99872.08;1735817;80;21002;-89
2022/09/13 14:27:08;;;;;;;14.43;7.05;;;;;;;12.48;100.00;99872.02;1739570;82;21034;-88
2022/09/13 14:29:56;;;;;;;10.72;7.03;;;;;;;12.49;100.00;99873.66;1728830;81;21018;-88
2022/09/13 14:32:43;;;;;;;15.43;8.80;;;;;;;12.46;100.00;99870.14;1721297;82;21394;-88
2022/09/13 14:35:36;;;;;;;15.78;8.28;;;;;;;12.46;100.00;99868.23;1723171;82;21420;-89
2022/09/13 14:38:25;;;;;;;14.13;7.17;;;;;;;12.42;100.00;99874.06;1731973;82;20990;-90
2022/09/13 14:41:15;;;;;;;23.15;12.50;;;;;;;12.40;100.00;99873.55;1729511;81;20979;-89
2022/09/13 14:44:16;;;;;;;15.13;8.95;;;;;;;12.38;100.00;99870.30;1710672;82;20999;-88
2022/09/13 14:47:09;;;;;;;17.30;7.95;;;;;;;12.37;100.00;99874.17;1720809;82;21689;-88
2022/09/13 14:50:01;;;;;;;11.57;6.37;;;;;;;12.32;100.00;99870.16;1703149;82;21051;-88
2022/09/13 14:52:51;;;;;;;12.82;7.33;;;;;;;12.29;100.00;99882.27;1738811;81;21035;-89
2022/09/13 14:55:39;;;;;;;53.48;28.15;;;;;;;12.27;100.00;99878.48;1736975;81;21011;-88
2022/09/13 14:58:39;;;;;;;21.95;11.53;;;;;;;12.25;100.00;99876.04;1685157;83;20996;-87
2022/09/13 15:01:34;;;;;;;20.00;10.53;;;;;;;12.25;100.00;99884.26;1727018;82;20971;-87
2022/09/13 15:04:20;;;;;;;15.15;8.73;;;;;;;12.22;100.00;99879.96;1721611;82;20991;-87
2022/09/13 15:07:07;;;;;;;21.15;12.35;;;;;;;12.19;100.00;99882.75;1733526;82;21542;-87
2022/09/13 15:10:01;;;;;;;16.35;10.23;;;;;;;12.17;100.00;99888.28;1702971;84;21000;-87
2022/09/13 15:12:59;;;;;;;18.37;7.05;;;;;;;12.16;100.00;99888.01;1687066;83;21123;-85
2022/09/13 15:15:44;;;;;;;18.73;9.33;;;;;;;12.14;100.00;99884.22;1719245;83;21033;-85
2022/09/13 15:18:30;;;;;;;13.50;6.28;;;;;;;12.13;100.00;99884.52;1720472;81;21031;-85
2022/09/13 15:21:15;;;;;;;14.25;7.47;;;;;;;12.09;100.00;99883.48;1703844;84;21437;-85
2022/09/13 15:24:00;;;;;;;24.40;9.83;;;;;;;12.08;100.00;99882.68;1732823;81;21682;-85
2022/09/13 15:26:45;;;;;;;24.67;10.72;;;;;;;12.07;100.00;99889.81;1733916;81;21398;-85
2022/09/13 15:29:33;;;;;;;13.05;6.95;;;;;;;12.04;100.00;99891.23;1712960;82;21049;-85
2022/09/13 15:32:23;;;;;;;8.20;4.35;;;;;;;12.02;100.00;99883.34;1727109;81;21079;-85
2022/09/13 15:35:28;;;;;;;8.28;4.83;;;;;;;12.02;100.00;99889.38;1704661;80;21023;-88
2022/09/13 15:38:29;;;;;;;7.22;3.40;;;;;;;11.99;100.00;99888.06;1652036;84;22050;-85
2022/09/13 15:41:18;;;;;;;19.05;9.00;;;;;;;11.99;100.00;99892.17;1674911;83;21440;-85
2022/09/13 15:44:05;;;;;;;16.97;9.05;;;;;;;11.94;100.00;99895.00;1666081;84;21116;-85
2022/09/13 15:46:52;;;;;;;23.27;12.33;;;;;;;11.92;100.00;99897.23;1684661;83;21053;-85
2022/09/13 15:49:39;;;;;;;18.42;7.05;;;;;;;11.92;100.00;99899.12;1703469;83;21005;-84
2022/09/13 15:52:25;;;;;;;31.52;17.17;;;;;;;11.90;100.00;99905.48;1682127;83;21027;-86
2022/09/13 15:55:10;;;;;;;10.85;5.40;;;;;;;11.86;100.00;99903.05;1668263;84;21468;-86
2022/09/13 15:57:55;;;;;;;5.80;3.25;;;;;;;11.82;100.00;99913.81;1680080;83;21033;-85
2022/09/13 16:00:40;;;;;;;6.03;2.83;;;;;;;11.77;100.00;99912.50;1688399;83;21029;-84
2022/09/13 16:03:25;;;;;;;5.60;3.05;;;;;;;11.70;100.00;99910.17;1682095;83;21025;-84
2022/09/13 16:06:10;;;;;;;3.77;2.80;;;;;;;11.63;100.00;99913.84;1672145;84;21472;-85
2022/09/13 16:08:54;;;;;;;9.00;5.12;;;;;;;11.55;100.00;99915.34;1668666;84;21045;-86
2022/09/13 16:11:41;;;;;;;9.05;4.97;;;;;;;11.49;100.00;99916.52;1691453;84;21061;-85
2022/09/13 16:14:26;;;;;;;7.50;3.58;;;;;;;11.45;100.00;99915.52;1680021;83;21588;-86
2022/09/13 16:17:24;;;;;;;22.13;9.00;;;;;;;11.41;100.00;99914.47;1691511;84;21066;-86
2022/09/13 16:20:13;;;;;;;14.90;6.25;;;;;;;11.38;100.00;99915.08;1668020;84;20990;-86
2022/09/13 16:22:58;;;;;;;22.62;11.78;;;;;;;11.36;100.00;99922.77;1670179;84;21022;-86
2022/09/13 16:25:43;;;;;;;21.60;8.53;;;;;;;11.35;100.00;99923.86;1692030;83;21713;-85
2022/09/13 16:28:28;;;;;;;15.70;7.28;;;;;;;11.32;100.00;99923.89;1663453;85;21090;-86
2022/09/13 16:31:15;;;;;;;15.58;7.70;;;;;;;11.32;100.00;99925.27;1667418;83;21072;-86
2022/09/13 16:33:59;;;;;;;21.65;7.45;;;;;;;11.33;100.00;99932.94;1663130;85;21188;-86
2022/09/13 16:36:44;;;;;;;21.05;8.73;;;;;;;11.30;100.00;99934.34;1677076;84;21536;-87
2022/09/13 16:39:29;;;;;;;17.92;8.90;;;;;;;11.30;100.00;99934.88;1672784;83;21009;-87
2022/09/13 16:42:14;;;;;;;17.23;7.00;;;;;;;11.30;100.00;99935.71;1670939;83;21004;-86
2022/09/13 16:44:59;;;;;;;12.98;6.50;;;;;;;11.29;100.00;99931.33;1690459;83;21028;-86
2022/09/13 16:47:44;;;;;;;9.68;4.90;;;;;;;11.29;100.00;99937.36;1691855;84;21009;-87
2022/09/13 16:50:29;;;;;;;21.60;7.42;;;;;;;11.29;100.00;99940.91;1690842;83;21029;-86
2022/09/13 16:53:14;;;;;;;18.35;8.85;;;;;;;11.29;100.00;99948.30;1752574;80;21008;-88
2022/09/13 16:56:11;;;;;;;9.83;4.40;;;;;;;11.27;100.00;99954.63;1734536;80;21018;-87
2022/09/13 16:58:56;;;;;;;10.10;4.15;;;;;;;11.27;100.00;99951.89;1715462;83;21001;-88
2022/09/13 17:01:40;;;;;;;5.28;3.50;;;;;;;11.25;100.00;99950.00;1741209;80;21015;-87
2022/09/13 17:04:25;;;;;;;10.08;4.78;;;;;;;11.25;100.00;99959.56;1716909;82;21069;-87
2022/09/13 17:07:12;;;;;;;19.87;11.25;;;;;;;11.25;100.00;99954.09;1722398;80;21004;-87
2022/09/13 17:09:56;;;;;;;8.90;3.62;;;;;;;11.24;100.00;99963.42;1729867;82;21374;-88
2022/09/13 17:12:41;;;;;;;11.15;6.55;;;;;;;11.22;100.00;99957.43;1728153;81;20997;-87
2022/09/13 17:15:25;;;;;;;5.85;3.62;;;;;;;11.23;100.00;99960.45;1715001;83;21017;-87
2022/09/13 17:18:11;;;;;;;3.83;2.70;;;;;;;11.22;100.00;99958.80;1730119;82;21465;-87
2022/09/13 17:20:57;;;;;;;3.72;2.27;;;;;;;11.24;100.00;99966.16;1745124;81;20997;-88
2022/09/13 17:23:42;;;;;;;3.90;2.10;;;;;;;11.22;100.00;99962.91;1716848;82;21427;-88
2022/09/13 17:26:26;;;;;;;4.90;2.80;;;;;;;11.21;100.00;99962.66;1746609;81;20978;-86
2022/09/13 17:29:13;;;;;;;4.72;2.87;;;;;;;11.19;100.00;99962.37;1697188;81;39622;-87
2022/09/13 17:31:59;;;;;;;3.60;2.33;;;;;;;11.23;100.00;99967.28;1737211;80;21053;-86
2022/09/13 17:34:44;;;;;;;4.95;3.00;;;;;;;11.24;100.00;99961.50;1730400;81;20992;-87
2022/09/13 17:37:29;;;;;;;9.30;3.00;;;;;;;11.25;100.00;99967.77;1726617;82;20966;-86
2022/09/13 17:40:14;;;;;;;5.30;3.37;;;;;;;11.24;100.00;99968.89;1739891;80;21948;-87
2022/09/13 17:42:59;;;;;;;4.85;2.83;;;;;;;11.22;100.00;99971.11;1719271;82;21009;-85
2022/09/13 17:45:44;;;;;;;5.50;3.10;;;;;;;11.19;100.00;99974.69;1722893;81;21049;-86
2022/09/13 17:48:29;;;;;;;6.90;3.50;;;;;;;11.18;100.00;99981.28;1726327;82;20997;-87
2022/09/13 17:51:17;;;;;;;15.58;6.75;;;;;;;11.14;100.00;99980.79;1723968;81;21975;-87
2022/09/13 17:54:05;;;;;;;9.15;3.90;;;;;;;11.12;100.00;99989.27;1716278;82;21180;-86
2022/09/13 17:56:50;;;;;;;12.70;5.65;;;;;;;11.09;100.00;99989.87;1749935;81;21059;-87
2022/09/13 17:59:35;;;;;;;7.03;3.10;;;;;;;11.07;100.00;99989.91;1745498;81;21520;-87
2022/09/13 18:02:20;;;;;;;4.72;2.75;;;;;;;11.04;100.00;99986.40;1717441;82;21125;-85
2022/09/13 18:05:06;;;;;;;5.47;2.98;;;;;;;11.01;100.00;99986.44;1718860;81;20981;-86
2022/09/13 18:07:52;;;;;;;4.03;2.40;;;;;;;10.98;100.00;99984.30;1735743;80;21384;-86
2022/09/13 18:10:37;;;;;;;6.45;2.42;;;;;;;10.96;100.00;99985.13;1744056;81;20993;-86
2022/09/13 18:13:22;;;;;;;5.05;2.80;;;;;;;10.94;100.00;99988.14;1735303;81;21013;-86
